Baker, OR

4:28 AM PST on March 03, 2015 (GMT -0800)
RAWS FLAGSTAFF HILL OR US | Change Station
CLOSE
Current Station
Personal Weather Station
Location: Baker City, OR
Elevation: 3944 ft
Nearby Weather Stations

Elev 3944 ft 44.81 °N, 117.73 °W | Updated 33 minutes ago

Clear
Clear
23 °F
Feels Like 11 °F
N
13
Wind Variable Wind from NW
Gusts 20.0 mph

Today
High -- | Low -- °F
--% Chance of Precip.
Yesterday
High -- | Low -- °F
Precip. -- in
6:25 AM 5:41 PM
Waxing Gibbous, 96% visible
Pressure 30.08 in
Visibility 10.0 miles
Clouds Clear
Windchill 11 °F
Dew Point 14 °F
Humidity 69%
Rainfall 0.00 in
Snow Depth Not available.
UV 0 out of 12
Pollen 3.80 out of 12
Air Quality Not available.
Flu Activity Not available.
METAR KBKE 031153Z AUTO 31012KT 10SM CLR M04/M09 A3001 RMK AO2 SLP184 T10391089 11017 21056 51014 TSNO

More Conditions Fewer Conditions

Pressure 30.08 in
Visibility 10.0 miles
Clouds Clear
Windchill 11 °F
Dew Point 14 °F
Humidity 69%
Rainfall 0.00 in
Snow Depth Not available.
UV 0 out of 12
Pollen 3.80 out of 12
Air Quality Not available.
Flu Activity Not available.
METAR KBKE 031153Z AUTO 31012KT 10SM CLR M04/M09 A3001 RMK AO2 SLP184 T10391089 11017 21056 51014 TSNO

More Conditions Fewer Conditions

10-Day Weather Forecast

Almanac

Astronomy

Mar. 03, 2015 Rise Set
Actual Time
Civil Twilight
Nautical Twilight
Astronomical Twilight
Moon
Length of Visible Light
Length of Day
Tomorrow will be .
, % of the Moon is Illuminated

Today's Extremes

State Highs State Lows

Community

WunderPhotos

Upload Photos

1,802,095 photos uploaded!

WunderBlogs® & News

Nearby

Air Quality

  Air Quality AQ Index Pollutant
Not available.

Snow Depth

Station Depth Elevation

Earthquake Activity

City Distance Mag. Time & Date
Minimum magnitude displayed is 2.5.

Coastal Water Temperatures

Place Temperature

Nearby Weather Stations